Flight Track Log - Related Links

Times and Time Zones

All times are in EDT time to prevent confusion due to time zone crossing. See the EJM826 flight status page for this flight to view local times or setup timezone preferences in your user account.


Time Position Orientation Groundspeed Altitude Reporting Facility
EDT Latitude Longitude Course Direction KTS MPH feet Rate Location/Type
Wed 02:09:10 PM 33.6500 -117.8833 203° Southwest 152 175 900  Level Southern California TRACON
Wed 02:10:10 PM 33.6167 -117.9000 203° Southwest 171 197 3,200 1,892 Climbing Southern California TRACON
Wed 02:11:01 PM 33.5622 -117.9044 184° South 199 229 4,400 1,965 Climbing Los Angeles Center
Wed 02:12:03 PM 33.5017 -117.8867 166° South 226 260 6,900 2,274 Climbing Los Angeles Center
Wed 02:13:05 PM 33.4500 -117.8333 139° Southeast 240 276 9,100 1,922 Climbing Southern California TRACON
Wed 02:14:11 PM 33.4000 -117.7833 140° Southeast 244 281 11,000 912 Climbing Southern California TRACON
Wed 02:15:10 PM 33.3544 -117.7206 131° Southeast 253 291 11,000  Level Los Angeles Center
Wed 02:16:12 PM 33.3036 -117.6511 131° Southeast 271 312 11,000  Level Los Angeles Center
Wed 02:17:06 PM 33.2333 -117.6000 149° Southeast 291 335 11,000  Level Southern California TRACON
Wed 02:18:06 PM 33.1667 -117.5333 140° Southeast 298 343 11,000  Level Southern California TRACON
Wed 02:19:06 PM 33.1000 -117.4833 148° Southeast 300 345 11,000 -1,000 Level Southern California TRACON
Wed 02:20:06 PM 33.0333 -117.4167 140° Southeast 292 336 9,000 -1,884 Descending Southern California TRACON
Wed 02:21:07 PM 32.9667 -117.3667 148° Southeast 283 326 7,200 -992 Descending Southern California TRACON
Wed 02:22:07 PM 32.9167 -117.3167 140° Southeast 238 274 7,000 -99 Descending Southern California TRACON
Wed 02:23:08 PM 32.8833 -117.2500 121° Southeast 208 239 7,000 -645 Level Southern California TRACON
Wed 02:24:08 PM 32.8500 -117.2000 128° Southeast 241 277 5,700 -952 Descending Southern California TRACON
Wed 02:25:14 PM 32.8167 -117.1167 115° Southeast 241 277 5,000 -331 Descending Southern California TRACON
Wed 02:26:15 PM 32.8000 -117.0500 107° East 206 237 5,000  Level Southern California TRACON
Wed 02:27:15 PM 32.7833 -116.9833 107° East 196 226 5,000  Level Southern California TRACON
Wed 02:28:09 PM 32.7667 -116.9167 107° East 205 236 5,000 -157 Level Southern California TRACON
Wed 02:29:10 PM 32.7167 -116.9167 180° South 196 226 4,700 -567 Descending Southern California TRACON
Wed 02:30:16 PM 32.6667 -116.9500 209° Southwest 214 246 3,800 -667 Descending Southern California TRACON
Wed 02:31:16 PM 32.6833 -117.0000 292° West 179 206 3,300 -626 Descending Southern California TRACON
Wed 02:32:11 PM 32.7000 -117.0500 292° West 169 194 2,600 -793 Descending Southern California TRACON
Wed 02:33:17 PM 32.7167 -117.1000 292° West 131 151 1,700 -905 Descending Southern California TRACON
Wed 02:34:17 PM 32.7167 -117.1500 270° West 126 145 700 -839 Descending Southern California TRACON
Wed 02:34:50 PM 32.7264 -117.1628 312° West 134 154 400 -253 Descending Los Angeles Center
Wed 02:35:52 PM 32.7367 -117.2008 288° West 132 152 300 -97 Descending Los Angeles Center

Login

Don't have an account? Register now (free) for customized features, flight alerts, and more!